Time;durP1;ratioP1;P1;durP2;ratioP2;P2;SDS_P1;SDS_P2;PMS_P1;PMS_P2;Temp;Humidity;BMP_temperature;BMP_pressure;BME280_temperature;BME280_humidity;BME280_pressure;Samples;Min_cycle;Max_cycle;Signal;HPM_P1;HPM_P2
2022/07/14 00:01:04;;;;;;;;;;;;;;;16.97;68.09;102030.78;5013022;28;19913;-83
2022/07/14 00:03:29;;;;;;;;;;;;;;;16.92;68.16;102030.00;5013072;28;19913;-83
2022/07/14 00:05:55;;;;;;;;;;;;;;;16.86;68.48;102030.13;5012364;28;19913;-83
2022/07/14 00:08:20;;;;;;;;;;;;;;;16.82;68.50;102016.25;5013252;28;20016;-83
2022/07/14 00:10:45;;;;;;;;;;;;;;;16.77;68.26;102029.47;5013271;28;19964;-83
2022/07/14 00:13:11;;;;;;;;;;;;;;;16.71;68.38;102033.97;5012316;28;19913;-83
2022/07/14 00:15:36;;;;;;;;;;;;;;;16.65;68.56;102027.97;5013477;28;19951;-83
2022/07/14 00:18:02;;;;;;;;;;;;;;;16.62;68.69;102024.53;5012955;28;19909;-83
2022/07/14 00:20:28;;;;;;;;;;;;;;;16.58;68.74;102022.88;5012443;28;19914;-83
2022/07/14 00:22:53;;;;;;;;;;;;;;;16.55;68.84;102015.94;5012954;28;20012;-83
2022/07/14 00:25:19;;;;;;;;;;;;;;;16.54;69.15;102008.13;5012997;28;20365;-83
2022/07/14 00:27:45;;;;;;;;;;;;;;;16.53;69.09;102002.00;5012427;28;19960;-83
2022/07/14 00:30:10;;;;;;;;;;;;;;;16.51;69.36;102003.78;5013008;28;20282;-83
2022/07/14 00:32:36;;;;;;;;;;;;;;;16.48;69.07;102004.75;5012370;28;20000;-82
2022/07/14 00:35:02;;;;;;;;;;;;;;;16.46;69.22;102006.53;5012825;28;19913;-83
2022/07/14 00:37:27;;;;;;;;;;;;;;;16.46;69.22;102014.38;5070462;22;19925;-82
2022/07/14 00:39:56;;;;;;;;;;;;;;;16.45;69.37;102012.66;5012277;28;19925;-83
2022/07/14 00:42:27;;;;;;;;;;;;;;;16.46;69.34;102013.53;5015938;28;20277;-83
2022/07/14 00:44:52;;;;;;;;;;;;;;;16.46;69.27;102016.16;5016451;28;19921;-83
2022/07/14 00:47:17;;;;;;;;;;;;;;;16.44;69.44;102018.78;5016069;28;19914;-83
2022/07/14 00:49:42;;;;;;;;;;;;;;;16.43;69.96;102016.22;5016242;28;20304;-83
2022/07/14 00:52:08;;;;;;;;;;;;;;;16.39;69.50;102012.78;5016262;28;19948;-83
2022/07/14 00:54:33;;;;;;;;;;;;;;;16.38;70.12;102011.06;5016162;28;20004;-83
2022/07/14 00:56:58;;;;;;;;;;;;;;;16.32;69.84;101996.34;5016572;28;19919;-82
2022/07/14 00:59:23;;;;;;;;;;;;;;;16.26;70.26;102006.97;5016741;28;19924;-83
2022/07/14 01:01:48;;;;;;;;;;;;;;;16.21;70.34;102024.50;5015509;28;19971;-83
2022/07/14 01:04:13;;;;;;;;;;;;;;;16.19;70.17;102026.28;5016134;28;20024;-83
2022/07/14 01:06:39;;;;;;;;;;;;;;;16.16;70.38;102022.00;5016065;28;20301;-83
2022/07/14 01:09:04;;;;;;;;;;;;;;;16.14;70.46;102023.78;5015104;28;19971;-83
2022/07/14 01:11:31;;;;;;;;;;;;;;;16.12;70.58;102027.31;5016346;28;19913;-83
2022/07/14 01:13:58;;;;;;;;;;;;;;;16.10;70.69;102021.25;5015870;28;20431;-82
2022/07/14 01:16:24;;;;;;;;;;;;;;;16.08;70.77;102030.88;5015617;28;19968;-83
2022/07/14 01:18:49;;;;;;;;;;;;;;;16.04;71.00;102027.47;5015744;28;20325;-82
2022/07/14 01:21:15;;;;;;;;;;;;;;;16.02;70.95;102031.88;5016092;28;19917;-83
2022/07/14 01:23:40;;;;;;;;;;;;;;;16.00;71.00;102036.25;5015567;28;19913;-83
2022/07/14 01:26:05;;;;;;;;;;;;;;;15.98;71.14;102038.06;5015716;28;19913;-83
2022/07/14 01:28:30;;;;;;;;;;;;;;;15.96;71.15;102048.56;5016236;28;19917;-83
2022/07/14 01:30:55;;;;;;;;;;;;;;;15.94;71.27;102041.63;5015096;28;19913;-83
2022/07/14 01:33:20;;;;;;;;;;;;;;;15.90;71.11;102036.44;5015876;28;20000;-83
2022/07/14 01:35:46;;;;;;;;;;;;;;;15.87;71.50;102041.75;5015150;28;19917;-83
2022/07/14 01:38:11;;;;;;;;;;;;;;;15.86;71.60;102042.63;5015013;28;19917;-83
2022/07/14 01:40:36;;;;;;;;;;;;;;;15.85;71.51;102047.88;5015359;28;19924;-83
2022/07/14 01:43:02;;;;;;;;;;;;;;;15.83;71.69;102040.03;5014816;28;19983;-82
2022/07/14 01:45:27;;;;;;;;;;;;;;;15.83;71.63;102034.81;5015702;28;19919;-82
2022/07/14 01:47:52;;;;;;;;;;;;;;;15.83;71.70;102039.16;5015449;28;19949;-83
2022/07/14 01:50:17;;;;;;;;;;;;;;;15.84;71.62;102040.88;5014813;28;20324;-82
2022/07/14 01:52:42;;;;;;;;;;;;;;;15.85;71.74;102026.94;5014226;28;19964;-83
2022/07/14 01:55:08;;;;;;;;;;;;;;;15.85;71.69;102032.19;5015474;28;20363;-83
2022/07/14 01:57:33;;;;;;;;;;;;;;;15.85;71.74;102034.78;5015039;28;19913;-83
2022/07/14 01:59:58;;;;;;;;;;;;;;;15.85;71.74;102026.94;5014944;28;20437;-83
2022/07/14 02:02:24;;;;;;;;;;;;;;;15.85;71.88;102025.22;5015403;28;19918;-83
2022/07/14 02:04:49;;;;;;;;;;;;;;;15.83;72.08;102026.94;5014464;28;20293;-82
2022/07/14 02:07:14;;;;;;;;;;;;;;;15.83;72.01;102033.91;5015090;28;19921;-82
2022/07/14 02:12:23;;;;;;;;;;;;;;;15.80;72.49;102019.16;5014837;28;20008;-83
2022/07/14 02:14:48;;;;;;;;;;;;;;;15.77;72.04;102018.34;5014999;28;19953;-82
2022/07/14 02:17:13;;;;;;;;;;;;;;;15.76;72.29;102022.72;5014969;28;20008;-83
2022/07/14 02:19:38;;;;;;;;;;;;;;;15.73;72.44;102021.00;5014596;28;19914;-82
2022/07/14 02:22:04;;;;;;;;;;;;;;;15.72;72.04;102021.91;5015068;28;19924;-82
2022/07/14 02:24:29;;;;;;;;;;;;;;;15.69;72.20;102024.59;5015116;28;20267;-82
2022/07/14 02:26:54;;;;;;;;;;;;;;;15.69;72.14;102026.34;5014343;28;20388;-82
2022/07/14 02:29:21;;;;;;;;;;;;;;;15.67;72.37;102022.88;5014974;28;19959;-82
2022/07/14 02:31:46;;;;;;;;;;;;;;;15.63;72.49;102024.69;5014967;28;19916;-82
2022/07/14 02:34:11;;;;;;;;;;;;;;;15.60;72.39;102023.00;5014172;28;20422;-82
2022/07/14 02:36:37;;;;;;;;;;;;;;;15.59;72.27;102033.50;5014837;28;19918;-82
2022/07/14 02:39:02;;;;;;;;;;;;;;;15.54;72.45;102024.84;5014262;28;19924;-82
2022/07/14 02:41:27;;;;;;;;;;;;;;;15.52;72.50;102013.53;5014475;28;19913;-82
2022/07/14 02:43:52;;;;;;;;;;;;;;;15.48;72.59;102006.66;5014601;28;19976;-81
2022/07/14 02:46:18;;;;;;;;;;;;;;;15.46;72.70;102011.03;5013870;28;20020;-81
2022/07/14 02:48:43;;;;;;;;;;;;;;;15.41;72.72;102011.97;5014880;28;19917;-81
2022/07/14 02:51:09;;;;;;;;;;;;;;;15.38;72.86;102005.94;5014085;28;19917;-82
2022/07/14 02:53:35;;;;;;;;;;;;;;;15.35;72.81;102003.38;5014011;28;19932;-81
2022/07/14 02:56:01;;;;;;;;;;;;;;;15.32;72.93;101999.06;5013761;28;19979;-81
2022/07/14 02:58:26;;;;;;;;;;;;;;;15.28;72.89;101995.63;5014455;28;19914;-81
2022/07/14 03:00:52;;;;;;;;;;;;;;;15.25;73.02;101998.28;5013315;28;19920;-81
2022/07/14 03:03:17;;;;;;;;;;;;;;;15.22;73.02;102000.09;5014402;28;19917;-81
2022/07/14 03:05:42;;;;;;;;;;;;;;;15.18;73.92;101996.69;5013940;28;19913;-81
2022/07/14 03:08:08;;;;;;;;;;;;;;;15.14;73.40;102000.22;5013329;28;20392;-81
2022/07/14 03:10:34;;;;;;;;;;;;;;;15.14;73.45;101989.75;5013956;28;19914;-81
2022/07/14 03:12:59;;;;;;;;;;;;;;;15.11;73.54;101998.53;5013614;28;19921;-81
2022/07/14 03:15:25;;;;;;;;;;;;;;;15.10;73.51;101988.06;5013356;28;19921;-81
2022/07/14 03:17:50;;;;;;;;;;;;;;;15.08;73.60;101993.34;5013604;28;19917;-81
2022/07/14 03:20:16;;;;;;;;;;;;;;;15.06;73.37;101989.88;5014353;28;19913;-81
2022/07/14 03:22:41;;;;;;;;;;;;;;;15.03;73.31;101982.06;5013158;28;20289;-81
2022/07/14 03:25:07;;;;;;;;;;;;;;;15.00;73.76;101973.41;5013508;28;19913;-81
2022/07/14 03:27:35;;;;;;;;;;;;;;;14.96;73.57;101973.50;5013733;28;19925;-81
2022/07/14 03:30:00;;;;;;;;;;;;;;;14.96;73.79;101962.16;5012768;28;20254;-82
2022/07/14 03:32:26;;;;;;;;;;;;;;;14.95;73.78;101960.44;5013673;28;20008;-81
2022/07/14 03:34:52;;;;;;;;;;;;;;;14.93;74.10;101970.91;5013617;28;20000;-81
2022/07/14 03:37:17;;;;;;;;;;;;;;;14.89;74.56;101971.84;5012875;28;20401;-81
2022/07/14 03:39:42;;;;;;;;;;;;;;;14.87;74.77;101970.16;5013782;28;19918;-81
2022/07/14 03:42:07;;;;;;;;;;;;;;;14.81;74.42;101974.56;5013194;28;20344;-81
2022/07/14 03:44:32;;;;;;;;;;;;;;;14.80;74.13;101977.22;5012515;28;19909;-81
2022/07/14 03:46:58;;;;;;;;;;;;;;;14.79;74.47;101976.38;5012954;28;19918;-81
2022/07/14 03:49:23;;;;;;;;;;;;;;;14.78;74.08;101974.63;5013530;28;19940;-81
2022/07/14 03:51:49;;;;;;;;;;;;;;;14.77;74.67;101980.75;5012496;28;19918;-81
2022/07/14 03:54:14;;;;;;;;;;;;;;;14.75;74.46;101987.72;5013591;28;19924;-81
2022/07/14 03:56:39;;;;;;;;;;;;;;;14.75;74.58;101994.72;5012854;28;19917;-81
2022/07/14 03:59:05;;;;;;;;;;;;;;;14.69;75.52;101985.22;5013079;28;20346;-81
2022/07/14 04:01:30;;;;;;;;;;;;;;;14.66;74.76;101993.91;5013515;28;19970;-81
2022/07/14 04:03:56;;;;;;;;;;;;;;;14.67;74.75;102002.66;5012307;28;19975;-81
2022/07/14 04:06:21;;;;;;;;;;;;;;;14.68;74.41;101993.94;5013446;28;19915;-81
2022/07/14 04:08:46;;;;;;;;;;;;;;;14.70;74.81;101999.13;5013473;28;20447;-82
2022/07/14 04:11:12;;;;;;;;;;;;;;;14.69;75.05;102000.03;5012491;28;19918;-81
2022/07/14 04:13:37;;;;;;;;;;;;;;;14.66;74.44;101993.91;5013220;28;20262;-81
2022/07/14 04:16:02;;;;;;;;;;;;;;;14.66;74.92;101988.69;5013165;28;20349;-81
2022/07/14 04:18:28;;;;;;;;;;;;;;;14.66;74.89;101985.22;5016837;28;20020;-81
2022/07/14 04:20:54;;;;;;;;;;;;;;;14.65;75.00;101979.13;5017278;28;19957;-81
2022/07/14 04:23:19;;;;;;;;;;;;;;;14.64;74.83;101982.63;5017128;28;19913;-81
2022/07/14 04:25:45;;;;;;;;;;;;;;;14.65;74.75;101989.56;5016550;28;20311;-81
2022/07/14 04:28:10;;;;;;;;;;;;;;;14.69;74.61;101998.28;5016772;28;20336;-81
2022/07/14 04:30:35;;;;;;;;;;;;;;;14.71;74.94;101987.81;5016868;28;20369;-81
2022/07/14 04:33:00;;;;;;;;;;;;;;;14.73;74.48;101988.66;5015906;28;19920;-82
2022/07/14 04:35:25;;;;;;;;;;;;;;;14.73;74.79;101988.66;5016845;28;20328;-81
2022/07/14 04:37:50;;;;;;;;;;;;;;;14.74;74.51;101986.00;5016350;28;19917;-81
2022/07/14 04:40:16;;;;;;;;;;;;;;;14.75;74.63;101985.13;5016301;28;20000;-81
2022/07/14 04:42:41;;;;;;;;;;;;;;;14.77;74.87;101985.09;5017010;28;19913;-82
2022/07/14 04:45:06;;;;;;;;;;;;;;;14.77;74.68;101988.59;5016644;28;20037;-81
2022/07/14 04:47:32;;;;;;;;;;;;;;;14.78;74.91;101986.81;5015486;28;19917;-81
2022/07/14 04:52:45;;;;;;;;;;;;;;;14.74;75.24;101990.38;5016676;28;19975;-81
2022/07/14 04:55:11;;;;;;;;;;;;;;;14.71;75.07;101988.66;5016404;28;19913;-80
2022/07/14 04:57:36;;;;;;;;;;;;;;;14.70;75.15;101983.47;5016474;28;20411;-82
2022/07/14 05:00:02;;;;;;;;;;;;;;;14.70;75.11;101986.06;5015492;28;20013;-82
2022/07/14 05:02:27;;;;;;;;;;;;;;;14.73;76.35;101991.25;5016529;28;19914;-82
2022/07/14 05:04:52;;;;;;;;;;;;;;;14.74;74.91;101993.84;5015671;28;19917;-81
2022/07/14 05:07:17;;;;;;;;;;;;;;;14.73;78.20;102002.56;5015656;28;19909;-81
2022/07/14 05:09:43;;;;;;;;;;;;;;;14.70;77.87;102007.81;5016344;28;19913;-81
2022/07/14 05:12:09;;;;;;;;;;;;;;;14.69;80.04;102007.84;5015855;28;19918;-81
2022/07/14 05:14:35;;;;;;;;;;;;;;;14.70;77.74;102006.97;5015540;28;19917;-81
2022/07/14 05:17:00;;;;;;;;;;;;;;;14.74;77.21;102009.53;5016172;28;20065;-81
2022/07/14 05:19:26;;;;;;;;;;;;;;;14.76;78.27;101999.91;5016328;28;19916;-81
2022/07/14 05:21:52;;;;;;;;;;;;;;;14.80;77.73;102004.22;5014655;28;19917;-81
2022/07/14 05:24:17;;;;;;;;;;;;;;;14.84;77.44;102005.03;5016140;28;19921;-81
2022/07/14 05:26:42;;;;;;;;;;;;;;;14.86;78.67;102005.00;5015890;28;19918;-81
2022/07/14 05:29:08;;;;;;;;;;;;;;;14.90;78.12;102004.09;5013741;28;19913;-81
2022/07/14 05:31:33;;;;;;;;;;;;;;;14.96;77.81;102004.84;5016094;28;19924;-81
2022/07/14 05:33:58;;;;;;;;;;;;;;;15.01;77.46;102001.28;5015689;28;20365;-81
2022/07/14 05:36:24;;;;;;;;;;;;;;;15.06;76.82;102002.09;5014880;28;20438;-81
2022/07/14 05:38:49;;;;;;;;;;;;;;;15.09;76.94;102002.03;5015758;28;19913;-82
2022/07/14 05:41:15;;;;;;;;;;;;;;;15.13;77.80;101998.50;5015767;28;19967;-81
2022/07/14 05:43:40;;;;;;;;;;;;;;;15.13;77.14;102001.09;5014943;28;20004;-81
2022/07/14 05:46:06;;;;;;;;;;;;;;;15.14;77.52;102008.06;5015680;28;19914;-81
2022/07/14 05:48:31;;;;;;;;;;;;;;;15.19;77.14;102008.00;5015859;28;19921;-82
2022/07/14 05:51:06;;;;;;;;;;;;;;;15.23;77.69;102015.75;5014850;28;20004;-82
2022/07/14 05:53:32;;;;;;;;;;;;;;;15.30;77.05;102008.69;5015178;28;19940;-82
2022/07/14 05:55:58;;;;;;;;;;;;;;;15.35;76.69;102011.22;5015065;28;19917;-82
2022/07/14 05:58:23;;;;;;;;;;;;;;;15.39;76.28;102005.06;5014544;28;20229;-82
2022/07/14 06:00:48;;;;;;;;;;;;;;;15.43;76.82;101998.84;5015248;28;20099;-82
2022/07/14 06:03:13;;;;;;;;;;;;;;;15.47;76.90;101994.47;5014451;28;19918;-81
2022/07/14 06:05:39;;;;;;;;;;;;;;;15.53;76.86;101994.34;5015332;28;19928;-83
2022/07/14 06:08:04;;;;;;;;;;;;;;;15.56;76.59;101995.16;5015047;28;19917;-85
2022/07/14 06:10:29;;;;;;;;;;;;;;;15.64;76.14;101999.41;5013895;28;19920;-84
2022/07/14 06:12:54;;;;;;;;;;;;;;;15.66;76.10;101997.59;5014693;28;20372;-84
2022/07/14 06:15:19;;;;;;;;;;;;;;;15.72;75.53;102005.34;5015355;28;19914;-83
2022/07/14 06:17:45;;;;;;;;;;;;;;;16.20;75.55;102002.72;5014510;28;19914;-81
2022/07/14 06:20:10;;;;;;;;;;;;;;;16.96;74.47;102008.94;5014830;28;20293;-81
2022/07/14 06:22:36;;;;;;;;;;;;;;;17.33;71.49;101999.31;5015141;28;19917;-80
2022/07/14 06:25:01;;;;;;;;;;;;;;;17.50;71.81;101993.66;5013611;28;19929;-79
2022/07/14 06:27:27;;;;;;;;;;;;;;;17.78;68.18;101990.25;5014912;28;19923;-79
2022/07/14 06:29:52;;;;;;;;;;;;;;;18.01;70.04;101991.44;5014622;28;19918;-79
2022/07/14 06:32:18;;;;;;;;;;;;;;;18.24;68.08;101992.53;5014347;28;20009;-79
2022/07/14 06:34:43;;;;;;;;;;;;;;;18.36;66.70;102000.91;5014871;28;20332;-80
2022/07/14 06:37:08;;;;;;;;;;;;;;;18.57;68.40;101998.56;5014192;28;20460;-80
2022/07/14 06:39:35;;;;;;;;;;;;;;;19.03;66.29;102004.16;5013639;28;19925;-80
2022/07/14 06:42:00;;;;;;;;;;;;;;;19.36;65.08;102005.72;5013932;28;19940;-81
2022/07/14 06:44:25;;;;;;;;;;;;;;;19.70;64.51;102009.84;5014717;28;20362;-80
2022/07/14 06:46:50;;;;;;;;;;;;;;;19.98;63.57;102014.13;5013774;28;19991;-80
2022/07/14 06:49:15;;;;;;;;;;;;;;;20.25;61.46;102008.75;5014482;28;20366;-81
2022/07/14 06:51:40;;;;;;;;;;;;;;;20.32;63.96;102005.81;5014342;28;19913;-81
2022/07/14 06:54:07;;;;;;;;;;;;;;;20.56;61.30;102008.44;5013383;28;19913;-82
2022/07/14 06:56:32;;;;;;;;;;;;;;;20.58;60.81;102005.75;5014075;28;19925;-80
2022/07/14 06:58:57;;;;;;;;;;;;;;;20.64;62.92;102001.09;5014106;28;20321;-81
2022/07/14 07:01:22;;;;;;;;;;;;;;;20.81;61.76;101997.81;5013449;28;19914;-80
2022/07/14 07:03:47;;;;;;;;;;;;;;;20.74;60.59;101992.81;5013705;28;19922;-81
2022/07/14 07:08:56;;;;;;;;;;;;;;;20.71;60.86;101993.81;5014067;28;19920;-80
2022/07/14 07:11:21;;;;;;;;;;;;;;;20.51;57.57;101994.56;5013164;28;19921;-80
2022/07/14 07:13:47;;;;;;;;;;;;;;;20.44;60.24;101993.06;5012818;28;19975;-80
2022/07/14 07:16:12;;;;;;;;;;;;;;;20.47;61.55;101995.59;5013877;28;19985;-81
2022/07/14 07:18:37;;;;;;;;;;;;;;;20.64;61.33;102001.09;5014231;28;19914;-80
2022/07/14 07:21:03;;;;;;;;;;;;;;;20.72;59.22;101998.13;5012874;28;20008;-80
2022/07/14 07:23:30;;;;;;;;;;;;;;;20.73;58.73;101991.09;5013928;28;19956;-81
2022/07/14 07:25:55;;;;;;;;;;;;;;;20.68;58.83;101994.75;5013536;28;19956;-81
2022/07/14 07:28:20;;;;;;;;;;;;;;;20.64;59.72;101994.94;5012902;28;19945;-81
2022/07/14 07:30:45;;;;;;;;;;;;;;;20.75;55.77;101994.56;5013913;28;19920;-80
2022/07/14 07:33:11;;;;;;;;;;;;;;;20.73;59.38;101985.81;5013532;28;19914;-81
2022/07/14 07:35:36;;;;;;;;;;;;;;;20.78;59.40;101979.47;5012935;28;19914;-81
2022/07/14 07:38:01;;;;;;;;;;;;;;;20.77;58.29;101988.31;5013226;28;20405;-81
2022/07/14 07:40:26;;;;;;;;;;;;;;;20.71;55.94;101985.88;5013578;28;19920;-81
2022/07/14 07:42:51;;;;;;;;;;;;;;;20.75;58.52;101979.59;5011979;28;19913;-81
2022/07/14 07:45:17;;;;;;;;;;;;;;;20.95;58.64;101977.91;5013641;28;19923;-81
2022/07/14 07:47:42;;;;;;;;;;;;;;;21.01;58.25;101961.84;5013528;28;19917;-81
2022/07/14 07:50:08;;;;;;;;;;;;;;;21.09;55.07;101961.53;5012307;28;20369;-81
2022/07/14 07:52:34;;;;;;;;;;;;;;;21.06;55.24;101959.00;5012908;28;19913;-81
2022/07/14 07:54:59;;;;;;;;;;;;;;;21.09;54.46;101964.16;5013049;28;20384;-81
2022/07/14 07:57:24;;;;;;;;;;;;;;;21.14;55.69;101964.81;5012883;28;19918;-81
2022/07/14 07:59:49;;;;;;;;;;;;;;;21.01;55.02;101972.38;5012816;28;20376;-80
2022/07/14 08:02:15;;;;;;;;;;;;;;;21.03;55.74;101967.03;5013615;28;19914;-81
2022/07/14 08:04:40;;;;;;;;;;;;;;;21.09;55.31;101966.78;5012803;28;19961;-81
2022/07/14 08:07:05;;;;;;;;;;;;;;;21.12;55.01;101956.97;5012710;28;19914;-81
2022/07/14 08:09:30;;;;;;;;;;;;;;;21.26;53.96;101960.81;5013160;28;20326;-81
2022/07/14 08:11:56;;;;;;;;;;;;;;;21.41;53.58;101954.84;5012023;28;19913;-80
2022/07/14 08:17:04;;;;;;;;;;;;;;;21.58;53.34;101945.34;5012569;28;20300;-81
2022/07/14 08:19:30;;;;;;;;;;;;;;;21.54;54.73;101941.97;5013390;28;19913;-81
2022/07/14 08:21:55;;;;;;;;;;;;;;;21.39;54.65;101946.13;5012964;28;19945;-81
2022/07/14 08:24:20;;;;;;;;;;;;;;;21.57;55.25;101943.63;5012440;28;19914;-80
2022/07/14 08:26:46;;;;;;;;;;;;;;;21.71;54.24;101945.66;5013458;28;20012;-81
2022/07/14 08:29:11;;;;;;;;;;;;;;;21.82;54.50;101931.97;5012702;28;19967;-79
2022/07/14 08:31:37;;;;;;;;;;;;;;;21.96;52.84;101933.97;5012551;28;19917;-78
2022/07/14 08:34:03;;;;;;;;;;;;;;;22.02;54.04;101934.56;5012748;28;19936;-79
2022/07/14 08:36:28;;;;;;;;;;;;;;;22.10;50.55;101933.34;5012719;28;19967;-81
2022/07/14 08:38:53;;;;;;;;;;;;;;;22.13;53.15;101933.19;5012137;28;19913;-76
2022/07/14 08:41:18;;;;;;;;;;;;;;;22.16;53.70;101939.19;5013177;28;19921;-82
2022/07/14 08:43:44;;;;;;;;;;;;;;;22.31;52.91;101940.25;5012716;28;20350;-82
2022/07/14 08:46:09;;;;;;;;;;;;;;;22.43;53.18;101944.16;5012184;28;19917;-81
2022/07/14 08:48:34;;;;;;;;;;;;;;;22.43;49.43;101937.97;5013130;28;19914;-82
2022/07/14 08:51:00;;;;;;;;;;;;;;;22.38;52.12;101935.53;5012606;28;19915;-82
2022/07/14 08:53:26;;;;;;;;;;;;;;;22.46;52.16;101932.56;5012128;28;20293;-81
2022/07/14 08:55:52;;;;;;;;;;;;;;;22.60;51.59;101929.22;5012703;28;19918;-82
2022/07/14 08:58:17;;;;;;;;;;;;;;;22.64;51.30;101931.66;5012518;28;19964;-82
2022/07/14 09:00:42;;;;;;;;;;;;;;;22.58;50.83;101925.78;5012255;28;19913;-82
2022/07/14 09:03:07;;;;;;;;;;;;;;;22.63;48.85;101929.09;5014773;28;20336;-82
2022/07/14 09:05:33;;;;;;;;;;;;;;;22.49;48.12;101927.13;5016360;28;19914;-81
2022/07/14 09:07:58;;;;;;;;;;;;;;;22.47;50.95;101926.34;5015478;28;20012;-82
2022/07/14 09:10:25;;;;;;;;;;;;;;;22.54;51.57;101929.53;5016687;28;19963;-81
2022/07/14 09:12:50;;;;;;;;;;;;;;;22.63;49.59;101926.44;5015892;28;19914;-81
2022/07/14 09:18:01;;;;;;;;;;;;;;;22.81;47.60;101920.22;5015953;28;19922;-81
2022/07/14 09:20:28;;;;;;;;;;;;;;;22.72;48.04;101925.13;5015697;28;19917;-82
2022/07/14 09:22:55;;;;;;;;;;;;;;;22.88;50.69;101922.56;5015427;28;19924;-81
2022/07/14 09:25:20;;;;;;;;;;;;;;;23.05;47.02;101924.38;5016067;28;20410;-81
2022/07/14 09:27:46;;;;;;;;;;;;;;;23.13;48.12;101924.81;5015379;28;20000;-82
2022/07/14 09:30:12;;;;;;;;;;;;;;;23.21;48.11;101921.81;5015405;28;19917;-82
2022/07/14 09:32:59;;;;;;;;;;;;;;;23.39;48.88;101914.72;5015608;28;19917;-83
2022/07/14 09:35:25;;;;;;;;;;;;;;;23.64;49.99;101924.00;5015331;28;19924;-82
2022/07/14 09:37:51;;;;;;;;;;;;;;;23.73;45.92;101916.41;5015098;28;19917;-82
2022/07/14 09:40:27;;;;;;;;;;;;;;;23.80;46.91;101913.44;5016028;28;19964;-82
2022/07/14 09:42:54;;;;;;;;;;;;;;;23.97;47.73;101917.84;5014733;28;20381;-81
2022/07/14 09:45:21;;;;;;;;;;;;;;;24.15;46.40;101916.81;5013042;28;19920;-81
2022/07/14 09:48:01;;;;;;;;;;;;;;;24.32;45.93;101912.34;4996271;28;20029;-81
2022/07/14 09:50:42;;;;;;;;;;;;;;;24.27;40.66;101915.25;4995404;28;19914;-82
2022/07/14 09:53:23;;;;;;;;;;;;;;;24.09;44.61;101918.94;4995051;28;20318;-81
2022/07/14 09:55:48;;;;;;;;;;;;;;;24.17;45.76;101914.94;4994934;28;19913;-82
2022/07/14 09:58:13;;;;;;;;;;;;;;;24.33;46.06;101920.22;4995856;28;19925;-81
2022/07/14 10:00:39;;;;;;;;;;;;;;;24.52;44.33;101921.81;4995680;28;20258;-81
2022/07/14 10:03:05;;;;;;;;;;;;;;;24.72;45.30;101920.69;4994726;28;19914;-81
2022/07/14 10:05:31;;;;;;;;;;;;;;;24.95;45.19;101919.31;4995703;28;20358;-81
2022/07/14 10:07:58;;;;;;;;;;;;;;;25.04;42.08;101917.09;4995393;28;19914;-82
2022/07/14 10:10:23;;;;;;;;;;;;;;;24.83;41.93;101907.66;4995010;28;19964;-81
2022/07/14 10:12:49;;;;;;;;;;;;;;;24.73;43.07;101910.91;5009890;28;19960;-81
2022/07/14 10:15:14;;;;;;;;;;;;;;;24.62;43.48;101932.75;5014300;28;20047;-81
2022/07/14 10:17:41;;;;;;;;;;;;;;;24.62;39.72;101930.09;5014282;28;19910;-81
2022/07/14 10:20:08;;;;;;;;;;;;;;;24.73;43.97;101921.53;5014546;28;19943;-81
2022/07/14 10:22:34;;;;;;;;;;;;;;;24.80;44.13;101925.56;5014961;28;20430;-82
2022/07/14 10:25:01;;;;;;;;;;;;;;;24.82;39.99;101927.16;5013767;28;19985;-81
2022/07/14 10:27:27;;;;;;;;;;;;;;;24.64;38.35;101929.06;5014923;28;19921;-83
2022/07/14 10:29:53;;;;;;;;;;;;;;;24.20;41.50;101935.97;5014325;28;19909;-78
2022/07/14 10:32:37;;;;;;;;;;;;;;;24.09;41.37;101934.84;5014068;28;19917;-82
2022/07/14 10:35:20;;;;;;;;;;;;;;;23.77;43.39;101930.34;5014531;28;20290;-82
2022/07/14 10:37:53;;;;;;;;;;;;;;;23.89;41.74;101931.47;5013608;28;19917;-82
2022/07/14 10:40:27;;;;;;;;;;;;;;;23.97;42.33;101934.59;5014511;28;19971;-82
2022/07/14 10:42:57;;;;;;;;;;;;;;;24.03;44.24;101934.25;5014175;28;20362;-82
2022/07/14 10:45:23;;;;;;;;;;;;;;;24.37;41.98;101931.50;5013885;28;19913;-82
2022/07/14 10:47:49;;;;;;;;;;;;;;;24.41;42.35;101926.88;5014390;28;20321;-83
2022/07/14 10:50:18;;;;;;;;;;;;;;;24.54;42.75;101929.69;5014677;28;20262;-82
2022/07/14 10:52:50;;;;;;;;;;;;;;;24.80;43.23;101928.22;5013753;28;19914;-82
2022/07/14 10:55:22;;;;;;;;;;;;;;;24.89;37.48;101924.16;5014619;28;20274;-82
2022/07/14 10:58:04;;;;;;;;;;;;;;;24.59;39.64;101928.50;5014565;28;19917;-82
2022/07/14 11:00:38;;;;;;;;;;;;;;;24.34;41.69;101923.72;5013887;28;20036;-83
2022/07/14 11:03:22;;;;;;;;;;;;;;;24.35;42.71;101922.78;5014294;28;19924;-85
2022/07/14 11:06:03;;;;;;;;;;;;;;;24.56;43.48;101919.84;5013235;28;19917;-81
2022/07/14 11:08:29;;;;;;;;;;;;;;;24.90;42.98;101917.88;5014182;28;19917;-82
2022/07/14 11:10:55;;;;;;;;;;;;;;;25.20;43.33;101915.19;5013520;28;19917;-81
2022/07/14 11:13:20;;;;;;;;;;;;;;;25.45;39.15;101919.06;5013570;28;19963;-81
2022/07/14 11:16:03;;;;;;;;;;;;;;;25.59;42.88;101920.84;5014001;28;19914;-82
2022/07/14 11:18:34;;;;;;;;;;;;;;;25.85;42.56;101921.03;5014001;28;19920;-81
2022/07/14 11:21:06;;;;;;;;;;;;;;;26.07;39.62;101923.16;5012983;28;20274;-84
2022/07/14 11:23:32;;;;;;;;;;;;;;;25.82;39.80;101915.91;5013203;28;20353;-84
2022/07/14 11:26:00;;;;;;;;;;;;;;;25.84;41.02;101917.50;5012874;28;19913;-84
2022/07/14 11:28:31;;;;;;;;;;;;;;;26.05;38.30;101914.44;5013029;28;20361;-84
2022/07/14 11:31:10;;;;;;;;;;;;;;;26.37;41.14;101914.19;5013711;28;19913;-84
2022/07/14 11:33:36;;;;;;;;;;;;;;;26.58;38.38;101919.88;5013659;28;19914;-84
2022/07/14 11:36:27;;;;;;;;;;;;;;;26.33;33.60;101928.63;5012633;28;20346;-87
2022/07/14 11:39:11;;;;;;;;;;;;;;;25.79;35.80;101919.59;5012133;28;20445;-84
2022/07/14 11:41:47;;;;;;;;;;;;;;;25.78;39.10;101919.72;5012952;28;20336;-85
2022/07/14 11:44:31;;;;;;;;;;;;;;;25.87;35.44;101919.13;5013294;28;19960;-86
2022/07/14 11:47:00;;;;;;;;;;;;;;;25.51;37.53;101926.63;5013544;28;19920;-85
2022/07/14 11:49:25;;;;;;;;;;;;;;;25.51;39.53;101923.13;5012705;28;20376;-85
2022/07/14 11:51:51;;;;;;;;;;;;;;;25.80;39.44;101918.66;5013107;28;19914;-83
2022/07/14 11:54:17;;;;;;;;;;;;;;;25.98;38.11;101921.09;5013501;28;20277;-85
2022/07/14 11:56:42;;;;;;;;;;;;;;;25.92;37.21;101922.34;5012994;28;19940;-85
2022/07/14 11:59:09;;;;;;;;;;;;;;;25.80;39.02;101917.78;5013029;28;19917;-84
2022/07/14 12:01:35;;;;;;;;;;;;;;;25.74;36.71;101917.25;5013475;28;19924;-84
2022/07/14 12:04:14;;;;;;;;;;;;;;;25.68;39.16;101925.59;5012519;28;19914;-85
2022/07/14 12:06:42;;;;;;;;;;;;;;;25.57;37.57;101925.41;4991952;28;20392;-84
2022/07/14 12:09:07;;;;;;;;;;;;;;;25.26;36.80;101929.91;4992775;28;20198;-84
2022/07/14 12:11:32;;;;;;;;;;;;;;;25.08;39.07;101919.47;4993932;28;20380;-86
2022/07/14 12:13:58;;;;;;;;;;;;;;;25.24;39.58;101923.84;4993710;28;19929;-84
2022/07/14 12:16:24;;;;;;;;;;;;;;;25.40;39.25;101926.41;4993216;28;19964;-85
2022/07/14 12:18:52;;;;;;;;;;;;;;;25.67;37.75;101926.53;4996862;28;19918;-85
2022/07/14 12:21:30;;;;;;;;;;;;;;;25.71;38.17;101917.44;5013214;28;20003;-85
2022/07/14 12:23:56;;;;;;;;;;;;;;;25.67;39.20;101917.72;5012729;28;20361;-85
2022/07/14 12:26:22;;;;;;;;;;;;;;;25.66;38.10;101919.53;5013264;28;19920;-85
2022/07/14 12:28:49;;;;;;;;;;;;;;;25.85;37.95;101913.06;5013402;28;19914;-85
2022/07/14 12:31:14;;;;;;;;;;;;;;;26.02;40.00;101912.81;5012593;28;19914;-85
2022/07/14 12:33:41;;;;;;;;;;;;;;;26.21;39.71;101911.69;5013345;28;20012;-86
2022/07/14 12:36:12;;;;;;;;;;;;;;;26.15;39.16;101915.59;5013051;28;19961;-86
2022/07/14 12:38:38;;;;;;;;;;;;;;;26.07;37.59;101917.84;5016043;28;20321;-86
2022/07/14 12:41:03;;;;;;;;;;;;;;;26.09;38.31;101912.44;5016728;28;19917;-86
2022/07/14 12:43:33;;;;;;;;;;;;;;;26.28;39.24;101907.66;5016772;28;20328;-86
2022/07/14 12:46:13;;;;;;;;;;;;;;;26.29;39.41;101906.69;4996124;28;19920;-86